This is the latest recevied weather packets stored in our database for station/object XE2G-31. If no packets are shown the sender has not sent any weather packets the latest 10 day(s).
| Time | Temp. | Humidity | Pressure | Rain* | Wind** | Luminosity | Snow |
|---|---|---|---|---|---|---|---|
| 1777903534 | 17.78° C | 70% | 871 hPa | - | - | - | - |
| 1777902587 | 18.89° C | 65% | 871 hPa | - | - | - | - |
| 1777901640 | 18.33° C | 69% | 871 hPa | - | - | - | - |
| 1777900693 | 17.78° C | 70% | 871 hPa | - | - | - | - |
| 1777899747 | 17.22° C | 71% | 871 hPa | - | - | - | - |
| 1777898800 | 17.22° C | 72% | 870 hPa | - | - | - | - |
| 1777897853 | 15.56° C | 82% | 871 hPa | - | - | - | - |
| 1777896906 | 15.56° C | 81% | 871 hPa | - | - | - | - |
| 1777895959 | 15.56° C | 80% | 870 hPa | - | - | - | - |
| 1777895012 | 15° C | 81% | 871 hPa | - | - | - | - |
| 1777894065 | 16.11° C | 78% | 870 hPa | - | - | - | - |
| 1777893119 | 15.56° C | 79% | 870 hPa | - | - | - | - |
| 1777892172 | 15.56° C | 79% | 870 hPa | - | - | - | - |
| 1777891225 | 16.11° C | 77% | 870 hPa | - | - | - | - |
| 1777890278 | 16.11° C | 76% | 870 hPa | - | - | - | - |
| 1777889331 | 16.11° C | 76% | 870 hPa | - | - | - | - |
| 1777888385 | 16.11° C | 75% | 870 hPa | - | - | - | - |
| 1777887438 | 16.11° C | 77% | 870 hPa | - | - | - | - |
| 1777886491 | 16.11° C | 76% | 870 hPa | - | - | - | - |
| 1777885544 | 15.56° C | 76% | 870 hPa | - | - | - | - |
| 1777884597 | 15.56° C | 77% | 871 hPa | - | - | - | - |
| 1777883650 | 15° C | 78% | 871 hPa | - | - | - | - |
| 1777882704 | 16.11° C | 77% | 871 hPa | - | - | - | - |
| 1777881757 | 15.56° C | 76% | 871 hPa | - | - | - | - |
| 1777880810 | 15.56° C | 76% | 871 hPa | - | - | - | - |
* Rain since midnight (hover to see other rain measurements)
** Current wind speed in m/s (hover to see current wind gust speed)